Time;durP1;ratioP1;P1;durP2;ratioP2;P2;SDS_P1;SDS_P2;PMS_P1;PMS_P2;Temp;Humidity;BMP_temperature;BMP_pressure;BME280_temperature;BME280_humidity;BME280_pressure;Samples;Min_cycle;Max_cycle;Signal;HPM_P1;HPM_P2
2023/07/19 05:07:20;;;;;;;;;;;;;;;27.81;53.35;99835.81;1868831;76;20109;-82
2023/07/19 05:09:47;;;;;;;;;;;;;;;27.97;52.76;99831.94;1814602;78;20094;-77
2023/07/19 05:12:15;;;;;;;;;;;;;;;28.11;51.89;99834.92;1819693;77;20129;-72
2023/07/19 05:14:42;;;;;;;;;;;;;;;28.23;51.26;99833.84;1823126;78;20141;-73
2023/07/19 05:17:20;;;;;;;;;;;;;;;28.36;50.84;99841.06;1814701;78;20092;-74
2023/07/19 05:19:53;;;;;;;;;;;;;;;28.50;50.51;99835.47;1761931;78;20443;-77
2023/07/19 05:22:20;;;;;;;;;;;;;;;28.65;50.15;99841.14;1829829;78;20136;-71
2023/07/19 05:24:47;;;;;;;;;;;;;;;28.76;49.70;99841.34;1830711;78;20098;-70
2023/07/19 05:27:19;;;;;;;;;;;;;;;28.92;49.65;99833.89;1829632;78;20914;-75
2023/07/19 05:29:49;;;;;;;;;;;;;;;29.07;49.30;99836.65;1799173;79;20100;-77
2023/07/19 05:32:16;;;;;;;;;;;;;;;29.27;48.94;99839.77;1813826;78;20105;-78
2023/07/19 05:34:43;;;;;;;;;;;;;;;29.40;48.48;99836.52;1833972;78;20423;-79
2023/07/19 05:37:09;;;;;;;;;;;;;;;29.50;48.03;99840.13;1834522;78;20164;-78
2023/07/19 05:39:36;;;;;;;;;;;;;;;29.61;47.84;99831.38;1833031;78;20191;-76
2023/07/19 05:42:03;;;;;;;;;;;;;;;29.78;47.73;99828.51;1834162;78;20093;-77
2023/07/19 05:44:30;;;;;;;;;;;;;;;29.94;47.32;99830.38;1808279;77;20129;-75
2023/07/19 05:46:57;;;;;;;;;;;;;;;30.03;46.27;99825.88;1804897;78;20148;-74
2023/07/19 05:49:23;;;;;;;;;;;;;;;30.10;45.92;99831.21;1813625;78;20347;-73
2023/07/19 05:51:50;;;;;;;;;;;;;;;30.21;45.77;99822.98;1818169;78;20149;-72
2023/07/19 05:54:20;;;;;;;;;;;;;;;30.33;45.50;99827.43;1812946;77;20142;-75
2023/07/19 05:56:46;;;;;;;;;;;;;;;30.42;45.36;99822.06;1791886;78;20413;-76
2023/07/19 05:59:14;;;;;;;;;;;;;;;30.55;44.97;99821.13;1812689;78;20123;-72
2023/07/19 06:01:42;;;;;;;;;;;;;;;30.59;44.91;99821.54;1811760;78;20143;-72
2023/07/19 06:04:09;;;;;;;;;;;;;;;30.66;44.80;99820.95;1804913;78;20131;-76
2023/07/19 06:06:41;;;;;;;;;;;;;;;30.71;44.46;99822.46;1793905;78;20123;-75
2023/07/19 06:09:06;;;;;;;;;;;;;;;30.80;44.63;99811.17;1788870;80;20559;-73
2023/07/19 06:11:33;;;;;;;;;;;;;;;30.93;45.00;99813.42;1789457;80;20396;-73
2023/07/19 06:14:02;;;;;;;;;;;;;;;31.04;44.15;99814.86;1781262;79;20100;-74
2023/07/19 06:16:29;;;;;;;;;;;;;;;31.14;43.57;99812.50;1822523;79;20092;-73
2023/07/19 06:18:56;;;;;;;;;;;;;;;31.23;43.14;99809.48;1821552;78;20225;-76
2023/07/19 06:21:24;;;;;;;;;;;;;;;31.29;42.85;99818.81;1820742;79;20128;-74
2023/07/19 06:23:53;;;;;;;;;;;;;;;31.33;42.63;99815.16;1820971;79;20104;-72
2023/07/19 06:26:20;;;;;;;;;;;;;;;31.38;42.77;99813.95;1821126;79;20104;-75
2023/07/19 06:28:48;;;;;;;;;;;;;;;31.46;42.37;99807.73;1820729;79;20104;-71
2023/07/19 06:31:20;;;;;;;;;;;;;;;31.58;41.60;99811.01;1814652;79;20395;-72
2023/07/19 06:33:48;;;;;;;;;;;;;;;31.61;40.69;99801.10;1791717;79;20091;-71
2023/07/19 06:36:15;;;;;;;;;;;;;;;31.68;40.50;99796.48;1826801;78;20389;-73
2023/07/19 06:38:41;;;;;;;;;;;;;;;31.74;40.33;99801.77;1827040;79;20131;-74
2023/07/19 06:41:08;;;;;;;;;;;;;;;31.65;40.02;99803.11;1804868;79;20132;-72
2023/07/19 06:43:35;;;;;;;;;;;;;;;31.55;40.47;99810.12;1788819;79;20096;-75
2023/07/19 06:46:02;;;;;;;;;;;;;;;31.36;40.24;99808.80;1789496;80;20123;-73
2023/07/19 06:48:30;;;;;;;;;;;;;;;31.10;40.45;99808.58;1794821;79;20104;-72
2023/07/19 06:50:56;;;;;;;;;;;;;;;30.80;41.32;99802.28;1820188;78;20136;-74
2023/07/19 06:53:23;;;;;;;;;;;;;;;30.49;41.64;99802.67;1818589;78;20258;-76
2023/07/19 07:03:29;;;;;;;;;;;;;;;30.32;41.94;99791.38;1809613;79;20123;-81
2023/07/19 07:05:57;;;;;;;;;;;;;;;30.08;42.17;99788.98;1804522;79;20143;-75
2023/07/19 07:08:24;;;;;;;;;;;;;;;29.78;42.67;99799.50;1798470;79;20145;-74
2023/07/19 07:10:53;;;;;;;;;;;;;;;29.43;43.24;99786.50;1817660;79;20641;-78
2023/07/19 07:13:20;;;;;;;;;;;;;;;29.11;43.80;99791.47;1809182;79;20234;-75
2023/07/19 07:15:47;;;;;;;;;;;;;;;28.85;44.86;99789.16;1787825;78;20407;-75
2023/07/19 07:18:16;;;;;;;;;;;;;;;28.71;45.86;99795.58;1776818;80;20435;-73
2023/07/19 07:20:42;;;;;;;;;;;;;;;28.66;45.31;99783.84;1787493;79;20854;-73
2023/07/19 07:23:10;;;;;;;;;;;;;;;28.63;44.79;99786.94;1787742;80;20149;-74
2023/07/19 07:25:36;;;;;;;;;;;;;;;28.57;44.56;99780.55;1787767;79;20186;-72
2023/07/19 07:28:04;;;;;;;;;;;;;;;28.47;44.72;99780.97;1788953;80;20130;-74
2023/07/19 07:30:36;;;;;;;;;;;;;;;28.44;45.12;99780.56;1784139;79;20404;-71
2023/07/19 07:36:06;;;;;;;;;;;;;;;28.49;46.00;99770.88;1701848;84;20128;-72
2023/07/19 07:38:37;;;;;;;;;;;;;;;28.68;46.25;99781.26;1792744;79;20186;-73
2023/07/19 07:41:11;;;;;;;;;;;;;;;29.02;46.40;99772.63;1797851;79;20084;-69
2023/07/19 07:43:36;;;;;;;;;;;;;;;29.41;45.62;99767.11;1815557;79;20119;-78
2023/07/19 08:06:28;;;;;;;;;;;;;;;30.79;40.37;99763.03;1818656;79;20106;-73
2023/07/19 08:08:56;;;;;;;;;;;;;;;30.83;40.11;99776.30;1817090;79;20471;-67
2023/07/19 08:11:25;;;;;;;;;;;;;;;30.79;40.42;99766.52;1819064;79;20131;-76
2023/07/19 08:14:09;;;;;;;;;;;;;;;30.81;40.63;99765.77;1778341;81;20468;-72
2023/07/19 08:16:43;;;;;;;;;;;;;;;30.85;40.74;99765.63;1761299;81;20451;-69
2023/07/19 08:19:10;;;;;;;;;;;;;;;30.99;40.98;99759.58;1779208;81;20124;-72
2023/07/19 08:21:37;;;;;;;;;;;;;;;31.13;40.74;99751.68;1778966;81;20148;-70
2023/07/19 08:24:05;;;;;;;;;;;;;;;31.21;40.19;99754.55;1760101;81;20139;-71
2023/07/19 08:26:33;;;;;;;;;;;;;;;31.27;39.26;99746.92;1760854;81;20147;-69
2023/07/19 08:57:11;;;;;;;;;;;;;;;29.89;39.31;99737.07;1748491;82;20139;-67
2023/07/19 08:59:38;;;;;;;;;;;;;;;29.70;38.84;99736.69;1748474;82;20110;-68
2023/07/19 09:02:06;;;;;;;;;;;;;;;29.65;38.79;99736.52;1757046;81;20159;-76
2023/07/19 09:04:35;;;;;;;;;;;;;;;29.71;38.95;99732.97;1760735;81;20102;-69
2023/07/19 09:07:06;;;;;;;;;;;;;;;29.89;38.79;99732.22;1759033;81;20452;-69
2023/07/19 09:09:34;;;;;;;;;;;;;;;30.08;38.28;99733.94;1761813;81;20416;-75
2023/07/19 09:12:03;;;;;;;;;;;;;;;30.17;37.43;99736.13;1756654;81;20150;-66
2023/07/19 09:14:36;;;;;;;;;;;;;;;30.05;36.59;99727.66;1730927;82;20145;-73
2023/07/19 09:17:06;;;;;;;;;;;;;;;29.76;37.21;99737.16;1748130;82;20132;-69
2023/07/19 09:19:42;;;;;;;;;;;;;;;29.50;37.41;99730.95;1748319;82;20139;-66
2023/07/19 09:22:09;;;;;;;;;;;;;;;29.20;37.49;99731.17;1748387;82;20107;-69
2023/07/19 09:24:36;;;;;;;;;;;;;;;29.01;38.52;99719.53;1748198;82;20111;-71
2023/07/19 09:27:04;;;;;;;;;;;;;;;29.00;38.98;99723.77;1768293;81;20117;-68
2023/07/19 09:32:02;;;;;;;;;;;;;;;29.12;38.46;99718.87;1779044;80;20093;-69
2023/07/19 09:34:37;;;;;;;;;;;;;;;29.04;38.52;99718.28;1774667;81;20102;-69
2023/07/19 09:37:04;;;;;;;;;;;;;;;28.92;38.69;99715.44;1759287;80;20111;-72
2023/07/19 09:39:33;;;;;;;;;;;;;;;28.76;39.14;99711.88;1774403;81;20105;-72
2023/07/19 09:42:01;;;;;;;;;;;;;;;28.64;39.62;99713.56;1777613;80;20112;-70
2023/07/19 09:44:28;;;;;;;;;;;;;;;28.57;39.98;99711.42;1751411;81;20087;-68
2023/07/19 09:46:54;;;;;;;;;;;;;;;28.48;39.79;99714.31;1748543;82;20372;-69
2023/07/19 09:49:21;;;;;;;;;;;;;;;28.44;39.96;99708.24;1748361;82;20102;-72
2023/07/19 09:51:48;;;;;;;;;;;;;;;28.38;39.45;99699.73;1718720;82;20134;-69
2023/07/19 09:54:15;;;;;;;;;;;;;;;28.27;39.47;99703.05;1754257;81;20133;-70
2023/07/19 09:56:43;;;;;;;;;;;;;;;28.14;40.07;99696.64;1753179;80;20163;-69
2023/07/19 09:59:14;;;;;;;;;;;;;;;28.14;40.57;99698.49;1758879;81;20496;-67
2023/07/19 10:01:45;;;;;;;;;;;;;;;28.18;40.45;99688.50;1749682;81;20162;-70
2023/07/19 10:04:25;;;;;;;;;;;;;;;28.16;40.00;99691.08;1772534;81;20851;-70
2023/07/19 10:07:09;;;;;;;;;;;;;;;28.07;40.21;99700.34;1762115;80;20506;-68
2023/07/19 10:09:40;;;;;;;;;;;;;;;27.96;40.08;99699.14;1763397;81;20119;-70
2023/07/19 10:12:19;;;;;;;;;;;;;;;27.87;40.34;99696.36;1763866;81;20184;-68
2023/07/19 10:15:02;;;;;;;;;;;;;;;27.83;40.74;99688.44;1764114;81;20130;-69
2023/07/19 10:17:31;;;;;;;;;;;;;;;27.83;39.94;99685.76;1748058;82;20111;-68
2023/07/19 10:20:06;;;;;;;;;;;;;;;27.72;39.34;99689.05;1758965;81;20112;-68
2023/07/19 10:22:57;;;;;;;;;;;;;;;27.65;39.54;99680.19;1760258;80;20109;-68
2023/07/19 10:25:31;;;;;;;;;;;;;;;27.63;39.51;99684.41;1764990;81;20412;-68
2023/07/19 10:28:07;;;;;;;;;;;;;;;27.68;39.91;99679.27;1761519;81;20112;-70
2023/07/19 10:30:47;;;;;;;;;;;;;;;27.73;39.95;99678.66;1762176;81;20091;-69
2023/07/19 10:33:22;;;;;;;;;;;;;;;27.75;39.91;99673.92;1762072;81;20115;-71
2023/07/19 10:36:09;;;;;;;;;;;;;;;27.74;40.19;99673.61;1759059;81;20107;-70
2023/07/19 10:38:37;;;;;;;;;;;;;;;27.78;40.48;99676.19;1762856;81;20396;-70
2023/07/19 10:41:07;;;;;;;;;;;;;;;27.83;40.40;99665.69;1759199;81;20389;-72
2023/07/19 10:43:35;;;;;;;;;;;;;;;27.82;40.26;99663.53;1761651;81;20147;-70
2023/07/19 10:46:04;;;;;;;;;;;;;;;27.79;39.42;99661.78;1760091;81;20200;-71
2023/07/19 10:48:32;;;;;;;;;;;;;;;27.74;38.93;99663.73;1757302;80;20115;-68
2023/07/19 10:51:01;;;;;;;;;;;;;;;27.67;38.35;99666.09;1759952;81;20123;-69
2023/07/19 10:53:27;;;;;;;;;;;;;;;27.60;38.44;99660.73;1778073;81;20135;-70
2023/07/19 10:55:54;;;;;;;;;;;;;;;27.56;38.78;99667.52;1779253;81;20093;-71
2023/07/19 10:58:22;;;;;;;;;;;;;;;27.54;38.96;99663.71;1772990;81;20404;-70
2023/07/19 11:00:49;;;;;;;;;;;;;;;27.51;39.19;99657.95;1746969;82;20135;-71
2023/07/19 11:03:16;;;;;;;;;;;;;;;27.41;39.57;99663.69;1760817;81;20096;-70
2023/07/19 11:05:46;;;;;;;;;;;;;;;27.32;39.74;99664.08;1756315;81;20115;-71
2023/07/19 11:08:21;;;;;;;;;;;;;;;27.21;39.81;99658.30;1772561;80;20135;-70
2023/07/19 11:10:49;;;;;;;;;;;;;;;27.10;39.86;99659.42;1784535;80;20109;-71
2023/07/19 11:13:18;;;;;;;;;;;;;;;26.98;40.13;99657.84;1785101;80;20390;-70
2023/07/19 11:15:49;;;;;;;;;;;;;;;26.97;40.32;99661.54;1785210;80;20402;-72
2023/07/19 11:18:40;;;;;;;;;;;;;;;27.01;40.20;99654.77;1785146;80;20096;-72
2023/07/19 11:21:07;;;;;;;;;;;;;;;27.06;39.84;99653.66;1785310;80;20132;-71
2023/07/19 11:23:41;;;;;;;;;;;;;;;27.06;39.64;99663.01;1784931;80;20140;-69
2023/07/19 11:26:10;;;;;;;;;;;;;;;27.00;39.56;99655.80;1785620;80;20155;-71
2023/07/19 11:31:36;;;;;;;;;;;;;;;26.91;39.79;99659.64;1764327;80;20853;-71
2023/07/19 11:34:08;;;;;;;;;;;;;;;26.89;39.89;99661.17;1766917;80;20119;-71
2023/07/19 11:36:44;;;;;;;;;;;;;;;26.88;40.12;99654.17;1773911;80;20108;-72
2023/07/19 11:39:16;;;;;;;;;;;;;;;26.90;40.17;99647.30;1783551;80;20124;-73
2023/07/19 11:41:43;;;;;;;;;;;;;;;26.89;40.29;99645.14;1766439;80;20382;-72
2023/07/19 11:44:19;;;;;;;;;;;;;;;26.88;40.20;99637.33;1757659;80;20122;-71
2023/07/19 11:46:47;;;;;;;;;;;;;;;26.88;40.21;99630.64;1737839;80;20134;-72
2023/07/19 11:56:50;;;;;;;;;;;;;;;26.56;39.05;99639.68;1767020;80;20424;-72
2023/07/19 11:59:18;;;;;;;;;;;;;;;26.55;39.29;99641.22;1771459;80;20168;-70
2023/07/19 12:01:45;;;;;;;;;;;;;;;26.61;39.88;99635.59;1780262;80;20178;-78
2023/07/19 12:04:11;;;;;;;;;;;;;;;26.70;40.29;99629.89;1755124;80;20094;-69
2023/07/19 12:06:38;;;;;;;;;;;;;;;26.82;39.72;99614.91;1760536;80;20128;-73
2023/07/19 12:09:07;;;;;;;;;;;;;;;26.94;39.93;99627.17;1763180;81;20388;-70
2023/07/19 12:11:34;;;;;;;;;;;;;;;27.04;39.70;99626.31;1765661;81;20111;-71
2023/07/19 12:14:01;;;;;;;;;;;;;;;27.14;39.49;99624.08;1761150;81;20167;-73
2023/07/19 12:16:27;;;;;;;;;;;;;;;27.17;38.83;99630.35;1763770;81;20119;-70
2023/07/19 12:18:54;;;;;;;;;;;;;;;27.18;38.54;99625.31;1760017;81;20146;-72
2023/07/19 12:21:25;;;;;;;;;;;;;;;27.19;38.40;99624.26;1759915;81;20099;-75
2023/07/19 12:23:51;;;;;;;;;;;;;;;27.19;38.57;99623.47;1724499;81;20087;-71
2023/07/19 12:26:20;;;;;;;;;;;;;;;27.18;38.29;99627.16;1763688;81;20116;-70
2023/07/19 12:28:47;;;;;;;;;;;;;;;27.12;38.37;99617.28;1751669;81;20154;-74
2023/07/19 12:31:14;;;;;;;;;;;;;;;27.01;38.84;99625.38;1768395;81;20132;-71
2023/07/19 12:33:42;;;;;;;;;;;;;;;26.87;38.97;99631.16;1772207;80;20158;-70
2023/07/19 12:36:09;;;;;;;;;;;;;;;26.70;39.39;99628.55;1757119;80;20166;-70
2023/07/19 12:38:37;;;;;;;;;;;;;;;26.52;39.80;99623.74;1755950;81;20396;-71
2023/07/19 13:03:58;;;;;;;;;;;;;;;25.56;42.70;99604.54;1748620;82;20118;-75
